Liberty Corner, New Jersey
Current Conditions -  °F | °C
As of 5:53 PM on Sunday 21 Dec 2014 (Local Time) from KSMQ Reporting Station
Overcast Overcast  
Wind Chill: 35°   Ceiling: 3300
Heat Index: 35°   Visibility: 10mi
Dew Point: 25°   Wind: 0mph
Humidity: 67%   Direction: NA
Pressure: 30.3"   Gusts: NA
Location:  40.66°N, 74.58°W
Report Text: KSMQ 212253Z AUTO 00000KT 10SM OVC033 02/M04 A3030 RMK AO2 SLP264 T00171039
Loading
Personal Weather Stations






























Interactive Weather Map New forecast layout! Learn more

10-Day Weather Forecast

Advertisements
Track Severe Weather on mobile